createdAt,value
2019-05-13T00:02:13.652Z,56.5
2019-05-13T00:07:13.767Z,56.93
2019-05-13T00:12:14.151Z,56.27
2019-05-13T00:17:14.935Z,56.53
2019-05-13T00:22:14.383Z,56.37
2019-05-13T00:27:25.531Z,56.58
2019-05-13T00:32:26.551Z,56.45
2019-05-13T00:37:26.536Z,56.78
2019-05-13T00:42:26.571Z,57.84
2019-05-13T00:47:26.648Z,57.1
2019-05-13T00:52:26.791Z,57.16
2019-05-13T00:57:26.787Z,57.17
2019-05-13T01:02:26.857Z,58.0
2019-05-13T01:07:29.317Z,58.03
2019-05-13T01:12:27.002Z,57.98
2019-05-13T01:17:27.038Z,58.94
2019-05-13T01:22:34.742Z,58.76
2019-05-13T01:27:33.949Z,58.81
2019-05-13T01:32:34.602Z,58.02
2019-05-13T01:37:45.354Z,58.18
2019-05-13T01:42:34.071Z,57.67
2019-05-13T01:47:34.850Z,58.04
2019-05-13T01:52:34.714Z,58.42
2019-05-13T01:57:34.575Z,58.56
2019-05-13T02:02:34.239Z,58.86
2019-05-13T02:07:34.289Z,58.78
2019-05-13T02:12:34.407Z,59.27
2019-05-13T02:17:40.782Z,58.42
2019-05-13T02:22:41.318Z,58.89
2019-05-13T02:27:44.287Z,59.14
2019-05-13T02:32:43.348Z,59.07
2019-05-13T02:37:44.060Z,59.26
2019-05-13T02:42:44.044Z,60.27
2019-05-13T02:47:44.702Z,59.71
2019-05-13T02:52:44.756Z,59.45
2019-05-13T02:57:44.199Z,59.23
2019-05-13T03:02:44.438Z,58.91
2019-05-13T03:07:43.318Z,58.88
2019-05-13T03:12:53.820Z,58.86
2019-05-13T03:17:52.798Z,59.06
2019-05-13T03:22:53.187Z,58.9
2019-05-13T03:27:54.481Z,59.64
2019-05-13T03:33:07.920Z,59.54
2019-05-13T03:37:53.188Z,59.55
2019-05-13T03:42:53.980Z,59.72
2019-05-13T03:47:53.067Z,60.42
2019-05-13T03:52:52.965Z,60.19
2019-05-13T03:57:53.697Z,60.15
2019-05-13T04:02:52.535Z,60.04
2019-05-13T04:07:58.383Z,60.25
2019-05-13T04:12:58.324Z,60.98
2019-05-13T04:17:58.358Z,60.91
2019-05-13T04:22:58.401Z,61.43
2019-05-13T04:27:58.466Z,60.92
2019-05-13T04:32:58.588Z,61.94
2019-05-13T04:37:58.621Z,60.88
2019-05-13T04:42:58.634Z,61.33
2019-05-13T04:47:58.882Z,62.4
2019-05-13T04:52:58.795Z,62.41
2019-05-13T04:57:58.887Z,62.12
2019-05-13T05:03:05.278Z,62.35
2019-05-13T05:08:05.394Z,62.05
2019-05-13T05:13:05.983Z,62.85
2019-05-13T05:18:06.019Z,62.88
2019-05-13T05:23:06.426Z,63.87
2019-05-13T05:28:06.274Z,63.75
2019-05-13T05:33:06.262Z,63.8
2019-05-13T05:38:06.474Z,63.67
2019-05-13T05:43:06.512Z,64.64
2019-05-13T05:48:06.511Z,63.84
2019-05-13T05:53:06.647Z,62.97
2019-05-13T05:58:13.235Z,62.96
2019-05-13T06:03:14.268Z,61.75
2019-05-13T06:08:13.270Z,60.04
2019-05-13T06:13:13.391Z,57.8
2019-05-13T06:18:13.579Z,57.13
2019-05-13T06:23:13.695Z,55.66
2019-05-13T06:28:13.719Z,55.36
2019-05-13T06:33:13.758Z,55.27
2019-05-13T06:38:13.875Z,57.03
2019-05-13T06:43:14.055Z,53.38
2019-05-13T06:48:14.008Z,53.61
2019-05-13T06:53:18.692Z,52.87
2019-05-13T06:58:21.973Z,53.2
2019-05-13T07:03:22.216Z,51.44
2019-05-13T07:08:21.537Z,51.37
2019-05-13T07:13:22.011Z,50.63
2019-05-13T07:18:22.127Z,51.55
2019-05-13T07:23:22.147Z,50.02
2019-05-13T07:28:22.304Z,50.84
2019-05-13T07:33:21.837Z,48.08
2019-05-13T07:38:22.634Z,47.15
2019-05-13T07:43:22.147Z,48.44
2019-05-13T07:48:28.408Z,48.2
2019-05-13T07:53:28.734Z,48.86
2019-05-13T07:58:29.010Z,49.95
2019-05-13T08:03:31.426Z,49.64
2019-05-13T08:08:28.907Z,48.65
2019-05-13T08:13:31.599Z,48.4
2019-05-13T08:18:31.629Z,51.12
2019-05-13T08:23:29.268Z,47.86
2019-05-13T08:28:32.637Z,45.09
2019-05-13T08:33:32.423Z,43.62
2019-05-13T08:38:32.225Z,45.74
2019-05-13T08:43:37.720Z,44.18
2019-05-13T08:48:37.832Z,44.5
2019-05-13T08:53:37.828Z,43.42
2019-05-13T08:58:37.887Z,40.62
2019-05-13T09:03:38.000Z,39.99
2019-05-13T09:08:38.027Z,42.01
2019-05-13T09:13:38.127Z,39.68
2019-05-13T09:18:38.305Z,37.83
2019-05-13T09:23:38.484Z,36.38
2019-05-13T09:28:38.668Z,35.9
2019-05-13T09:33:38.624Z,35.75
2019-05-13T09:38:45.144Z,32.39
2019-05-13T09:43:45.109Z,33.11
2019-05-13T09:48:45.224Z,32.48
2019-05-13T09:53:45.435Z,32.36
2019-05-13T09:58:45.601Z,32.21
2019-05-13T10:09:33.861Z,30.96
2019-05-13T10:14:33.898Z,32.79
2019-05-13T10:19:33.973Z,30.89
2019-05-13T10:24:34.037Z,31.53
2019-05-13T10:29:34.079Z,30.75
2019-05-13T10:34:42.963Z,33.14
2019-05-13T10:39:40.439Z,30.16
2019-05-13T10:44:42.675Z,34.47
2019-05-13T10:49:42.867Z,32.12
2019-05-13T10:54:41.908Z,33.23
2019-05-13T10:59:41.049Z,32.63
2019-05-13T11:04:42.124Z,32.0
2019-05-13T11:09:42.239Z,31.81
2019-05-13T11:14:42.591Z,33.11
2019-05-13T11:19:41.043Z,32.16
2019-05-13T11:24:43.507Z,32.47
2019-05-13T11:29:47.412Z,32.92
2019-05-13T11:34:47.460Z,33.65
2019-05-13T11:39:47.667Z,31.81
2019-05-13T11:44:47.710Z,32.08
2019-05-13T11:49:47.839Z,30.72
2019-05-13T11:54:47.899Z,30.18
2019-05-13T11:59:47.904Z,33.5
2019-05-13T12:04:48.089Z,31.0
2019-05-13T12:09:48.056Z,30.69
2019-05-13T12:15:25.752Z,32.62
2019-05-13T12:19:48.173Z,34.12
2019-05-13T12:24:54.767Z,28.39
2019-05-13T12:29:54.642Z,28.5
2019-05-13T12:34:54.657Z,27.38
2019-05-13T12:39:54.749Z,29.38
2019-05-13T12:45:09.617Z,30.45
2019-05-13T12:49:55.188Z,27.52
2019-05-13T12:54:55.058Z,29.73
2019-05-13T12:59:55.084Z,27.69
2019-05-13T13:05:19.849Z,29.28
2019-05-13T13:09:55.311Z,31.62
2019-05-13T13:14:58.218Z,31.01
2019-05-13T13:25:13.749Z,30.74
2019-05-13T13:30:13.036Z,32.21
2019-05-13T13:35:15.161Z,30.88
2019-05-13T13:40:13.229Z,30.15
2019-05-13T13:45:13.565Z,30.34
2019-05-13T13:50:13.444Z,31.33
2019-05-13T13:55:16.679Z,29.44
2019-05-13T14:00:40.345Z,27.91
2019-05-13T14:05:13.797Z,29.96
2019-05-13T14:10:13.955Z,29.72
2019-05-13T14:15:21.877Z,28.94
2019-05-13T14:20:22.305Z,30.81
2019-05-13T14:25:22.725Z,28.36
2019-05-13T14:30:22.171Z,27.27
2019-05-13T14:35:22.315Z,27.17
2019-05-13T14:40:22.739Z,26.78
2019-05-13T14:45:24.083Z,29.33
2019-05-13T14:50:21.797Z,29.26
2019-05-13T14:55:21.783Z,27.31
2019-05-13T15:00:22.476Z,27.7
2019-05-13T15:05:22.398Z,26.67
2019-05-13T15:10:28.460Z,26.97
2019-05-13T15:15:28.238Z,28.64
2019-05-13T15:20:28.354Z,28.93
2019-05-13T15:25:28.342Z,29.14
2019-05-13T15:30:28.583Z,27.62
2019-05-13T15:35:29.091Z,27.48
2019-05-13T15:40:36.095Z,26.18
2019-05-13T15:45:36.450Z,27.66
2019-05-13T15:50:36.895Z,28.34
2019-05-13T15:55:36.659Z,26.74
2019-05-13T16:00:36.658Z,27.54
2019-05-13T16:05:43.012Z,27.94
2019-05-13T16:10:44.683Z,27.53
2019-05-13T16:15:44.834Z,26.7
2019-05-13T16:20:45.782Z,28.34
2019-05-13T16:25:45.120Z,27.84
2019-05-13T16:30:45.236Z,27.56
2019-05-13T16:35:45.189Z,28.39
2019-05-13T16:40:45.110Z,28.5
2019-05-13T16:45:45.563Z,28.0
2019-05-13T16:50:45.866Z,28.71
2019-05-13T16:55:46.232Z,28.54
2019-05-13T17:00:56.097Z,30.34
2019-05-13T17:05:52.688Z,29.34
2019-05-13T17:10:52.830Z,28.2
2019-05-13T17:15:52.764Z,29.14
2019-05-13T17:20:52.883Z,29.2
2019-05-13T17:25:53.043Z,30.19
2019-05-13T17:30:53.283Z,30.79
2019-05-13T17:35:53.397Z,29.66
2019-05-13T17:40:53.515Z,32.03
2019-05-13T17:45:53.441Z,32.42
2019-05-13T17:50:53.558Z,32.43
2019-05-13T17:56:02.784Z,28.68
2019-05-13T18:01:02.314Z,32.42
2019-05-13T18:06:02.836Z,31.81
2019-05-13T18:11:02.760Z,33.72
2019-05-13T18:16:06.594Z,31.9
2019-05-13T18:21:06.780Z,32.98
2019-05-13T18:26:06.793Z,34.58
2019-05-13T18:31:06.835Z,35.21
2019-05-13T18:36:06.876Z,34.33
2019-05-13T18:41:06.993Z,35.26
2019-05-13T18:46:07.156Z,34.4
2019-05-13T18:51:13.431Z,35.8
2019-05-13T18:56:13.417Z,37.82
2019-05-13T19:01:13.661Z,36.66
2019-05-13T19:06:13.591Z,38.34
2019-05-13T19:11:13.744Z,36.73
2019-05-13T19:16:13.735Z,38.59
2019-05-13T19:21:13.771Z,38.29
2019-05-13T19:26:13.958Z,37.78
2019-05-13T19:31:13.924Z,38.35
2019-05-13T19:36:14.048Z,38.32
2019-05-13T19:41:14.068Z,39.97
2019-05-13T19:46:20.384Z,39.3
2019-05-13T19:51:21.957Z,39.45
2019-05-13T19:56:21.756Z,39.53
2019-05-13T20:01:21.974Z,40.8
2019-05-13T20:06:21.697Z,41.3
2019-05-13T20:11:22.139Z,41.71
2019-05-13T20:16:22.603Z,41.08
2019-05-13T20:21:20.968Z,42.05
2019-05-13T20:26:22.018Z,42.26
2019-05-13T20:31:22.018Z,42.78
2019-05-13T20:36:22.586Z,41.92
2019-05-13T20:41:27.454Z,43.32
2019-05-13T20:46:27.513Z,42.14
2019-05-13T20:51:27.534Z,41.57
2019-05-13T20:56:27.646Z,39.09
2019-05-13T21:01:27.762Z,39.73
2019-05-13T21:06:27.770Z,39.56
2019-05-13T21:11:27.886Z,39.46
2019-05-13T21:16:28.050Z,40.05
2019-05-13T21:21:28.062Z,36.57
2019-05-13T21:26:28.250Z,35.65
2019-05-13T21:31:28.239Z,38.32
2019-05-13T21:36:34.550Z,35.99
2019-05-13T21:41:34.585Z,36.68
2019-05-13T21:46:34.839Z,38.12
2019-05-13T21:51:34.828Z,40.1
2019-05-13T21:56:34.838Z,39.72
2019-05-13T22:01:34.951Z,41.83
2019-05-13T22:06:35.092Z,42.36
2019-05-13T22:11:35.520Z,42.57
2019-05-13T22:16:35.629Z,42.06
2019-05-13T22:21:35.249Z,43.28
2019-05-13T22:26:35.362Z,42.92
2019-05-13T22:31:42.319Z,42.98
2019-05-13T22:36:41.804Z,44.18
2019-05-13T22:41:42.420Z,43.52
2019-05-13T22:46:42.080Z,43.23
2019-05-13T22:51:42.208Z,43.28
2019-05-13T22:56:42.138Z,43.88
2019-05-13T23:01:42.394Z,43.49
2019-05-13T23:06:42.397Z,44.14
2019-05-13T23:11:42.439Z,44.06
2019-05-13T23:16:42.651Z,43.87
2019-05-13T23:21:42.582Z,44.63
2019-05-13T23:26:48.918Z,44.76
2019-05-13T23:31:48.955Z,44.89
2019-05-13T23:36:51.377Z,44.58
2019-05-13T23:41:49.197Z,44.84
2019-05-13T23:46:51.676Z,44.7
2019-05-13T23:51:49.344Z,45.2
2019-05-13T23:56:49.368Z,45.25
